createdAt,value
2023-02-13T00:00:05.936Z,29.20
2023-02-13T00:02:10.730Z,30.85
2023-02-13T00:04:15.553Z,31.38
2023-02-13T00:06:20.329Z,30.23
2023-02-13T00:08:25.267Z,31.77
2023-02-13T00:10:30.524Z,30.48
2023-02-13T00:12:35.467Z,30.20
2023-02-13T00:14:43.635Z,30.45
2023-02-13T00:16:48.498Z,31.73
2023-02-13T00:18:55.967Z,32.38
2023-02-13T00:21:02.802Z,32.58
2023-02-13T00:23:07.671Z,30.13
2023-02-13T00:25:12.571Z,26.63
2023-02-13T00:27:17.416Z,28.33
2023-02-13T00:29:22.604Z,26.23
2023-02-13T00:33:34.985Z,24.60
2023-02-13T00:35:39.856Z,24.63
2023-02-13T00:37:44.665Z,25.52
2023-02-13T00:39:49.442Z,23.67
2023-02-13T00:41:55.545Z,27.40
2023-02-13T00:44:00.458Z,25.58
2023-02-13T00:46:05.991Z,25.13
2023-02-13T00:48:13.431Z,27.13
2023-02-13T00:50:18.603Z,24.25
2023-02-13T00:52:23.406Z,24.65
2023-02-13T00:56:33.314Z,23.40
2023-02-13T00:58:38.282Z,22.83
2023-02-13T01:00:43.102Z,21.80
2023-02-13T01:02:48.060Z,23.65
2023-02-13T01:04:55.544Z,23.30
2023-02-13T01:07:00.711Z,23.65
2023-02-13T01:11:10.604Z,23.77
2023-02-13T01:13:15.911Z,22.58
2023-02-13T01:15:20.963Z,24.80
2023-02-13T01:17:26.663Z,24.95
2023-02-13T01:19:34.702Z,21.58
2023-02-13T01:21:42.232Z,22.67
2023-02-13T01:23:47.463Z,22.33
2023-02-13T01:27:59.609Z,21.02
2023-02-13T01:30:04.573Z,20.27
2023-02-13T01:32:09.479Z,21.60
2023-02-13T01:34:14.340Z,19.85
2023-02-13T01:36:19.767Z,20.42
2023-02-13T01:38:27.235Z,21.65
2023-02-13T01:40:32.370Z,23.80
2023-02-13T01:42:38.874Z,24.33
2023-02-13T01:44:55.280Z,23.55
2023-02-13T01:47:00.156Z,23.42
2023-02-13T01:49:12.186Z,21.10
2023-02-13T01:51:21.309Z,21.80
2023-02-13T01:53:32.816Z,20.65
2023-02-13T01:55:40.621Z,22.17
2023-02-13T01:57:49.801Z,18.65
2023-02-13T02:00:00.143Z,20.23
2023-02-13T02:02:06.608Z,20.25
2023-02-13T02:04:16.355Z,19.98
2023-02-13T02:06:28.780Z,18.90
2023-02-13T02:08:37.994Z,18.20
2023-02-13T02:10:45.962Z,18.70
2023-02-13T02:12:55.308Z,17.85
2023-02-13T02:15:03.246Z,17.10
2023-02-13T02:17:10.918Z,17.77
2023-02-13T02:19:25.442Z,20.00
2023-02-13T02:21:57.924Z,20.42
2023-02-13T02:24:50.683Z,20.05
2023-02-13T02:27:12.715Z,29.13
2023-02-13T02:29:52.472Z,29.73
2023-02-13T02:32:31.545Z,27.95
2023-02-13T02:34:44.208Z,24.67
2023-02-13T02:37:08.033Z,21.40
2023-02-13T02:39:22.642Z,19.17
2023-02-13T02:41:45.219Z,20.73
2023-02-13T02:44:02.140Z,22.23
2023-02-13T02:46:14.253Z,21.23
2023-02-13T02:48:41.534Z,20.67
2023-02-13T02:50:51.754Z,18.85
2023-02-13T02:53:07.522Z,19.00
2023-02-13T02:55:27.340Z,18.38
2023-02-13T02:57:47.721Z,17.45
2023-02-13T03:00:08.342Z,17.83
2023-02-13T03:02:27.505Z,16.33
2023-02-13T03:04:51.730Z,16.55
2023-02-13T03:07:01.800Z,17.42
2023-02-13T03:09:22.953Z,18.52
2023-02-13T03:11:40.342Z,17.60
2023-02-13T03:13:49.788Z,16.67
2023-02-13T03:16:22.014Z,15.98
2023-02-13T03:18:39.605Z,19.88
2023-02-13T03:21:06.245Z,17.40
2023-02-13T03:23:16.976Z,16.25
2023-02-13T03:25:34.577Z,18.02
2023-02-13T03:28:01.321Z,17.73
2023-02-13T03:30:16.594Z,16.90
2023-02-13T03:32:29.560Z,14.60
2023-02-13T03:34:50.905Z,15.77
2023-02-13T03:37:16.919Z,17.17
2023-02-13T03:39:27.069Z,16.90
2023-02-13T03:41:37.792Z,19.30
2023-02-13T03:43:48.133Z,18.20
2023-02-13T03:45:54.284Z,18.55
2023-02-13T03:48:09.674Z,18.35
2023-02-13T03:50:14.285Z,17.55
2023-02-13T03:52:27.450Z,18.00
2023-02-13T03:54:51.204Z,17.38
2023-02-13T03:57:10.815Z,18.90
2023-02-13T03:59:25.192Z,18.05
2023-02-13T04:01:33.580Z,19.25
2023-02-13T04:03:43.482Z,19.83
2023-02-13T04:05:52.764Z,20.75
2023-02-13T04:08:02.971Z,18.52
2023-02-13T04:10:13.568Z,18.63
2023-02-13T04:12:22.396Z,20.95
2023-02-13T04:14:30.676Z,19.00
2023-02-13T04:16:39.866Z,19.02
2023-02-13T04:18:46.056Z,17.45
2023-02-13T04:20:51.113Z,19.13
2023-02-13T04:22:56.034Z,18.13
2023-02-13T04:25:03.938Z,17.95
2023-02-13T04:27:08.780Z,16.35
2023-02-13T04:29:13.644Z,17.40
2023-02-13T04:31:18.698Z,18.52
2023-02-13T04:33:23.763Z,18.15
2023-02-13T04:35:28.997Z,18.13
2023-02-13T04:37:33.890Z,17.35
2023-02-13T04:39:38.653Z,17.65
2023-02-13T04:41:46.123Z,17.23
2023-02-13T04:43:52.557Z,17.00
2023-02-13T04:45:59.441Z,18.40
2023-02-13T04:48:04.200Z,17.63
2023-02-13T04:50:10.211Z,17.30
2023-02-13T04:52:15.380Z,17.25
2023-02-13T04:56:24.731Z,17.58
2023-02-13T04:58:32.191Z,16.75
2023-02-13T05:00:37.748Z,17.15
2023-02-13T05:02:45.536Z,17.42
2023-02-13T05:04:50.498Z,18.02
2023-02-13T05:06:55.397Z,16.88
2023-02-13T05:09:00.264Z,19.45
2023-02-13T05:11:05.452Z,18.60
2023-02-13T05:15:17.554Z,16.75
2023-02-13T05:17:22.397Z,16.75
2023-02-13T05:19:27.345Z,17.08
2023-02-13T05:21:44.704Z,19.08
2023-02-13T05:23:49.619Z,16.70
2023-02-13T05:25:56.366Z,20.08
2023-02-13T05:28:01.658Z,17.60
2023-02-13T05:32:11.279Z,17.02
2023-02-13T05:34:16.195Z,17.23
2023-02-13T05:36:21.117Z,15.80
2023-02-13T05:38:25.988Z,17.38
2023-02-13T05:40:30.995Z,16.20
2023-02-13T05:42:35.830Z,16.25
2023-02-13T05:44:40.815Z,14.52
2023-02-13T05:46:46.311Z,14.30
2023-02-13T05:48:56.458Z,14.70
2023-02-13T05:51:01.498Z,15.15
2023-02-13T05:53:06.386Z,15.43
2023-02-13T05:55:11.502Z,17.00
2023-02-13T05:59:23.709Z,15.82
2023-02-13T06:01:28.911Z,15.57
2023-02-13T06:03:34.661Z,16.25
2023-02-13T06:05:42.188Z,15.77
2023-02-13T06:07:47.044Z,16.42
2023-02-13T06:09:51.931Z,16.27
2023-02-13T06:11:56.700Z,15.75
2023-02-13T06:14:01.555Z,15.68
2023-02-13T06:16:06.633Z,15.50
2023-02-13T06:20:16.494Z,15.82
2023-02-13T06:22:23.986Z,15.20
2023-02-13T06:24:28.879Z,16.73
2023-02-13T06:26:33.718Z,15.57
2023-02-13T06:28:38.703Z,15.77
2023-02-13T06:30:43.538Z,16.67
2023-02-13T06:32:50.284Z,15.85
2023-02-13T06:34:55.131Z,15.25
2023-02-13T06:37:00.109Z,15.73
2023-02-13T06:39:07.697Z,16.67
2023-02-13T06:41:12.702Z,16.00
2023-02-13T06:43:18.042Z,16.15
2023-02-13T06:45:22.889Z,17.30
2023-02-13T06:47:28.099Z,16.55
2023-02-13T06:51:37.436Z,16.65
2023-02-13T06:53:42.239Z,18.40
2023-02-13T06:55:56.497Z,20.90
2023-02-13T06:58:02.583Z,19.25
2023-02-13T07:00:13.369Z,19.77
2023-02-13T07:02:18.601Z,19.75
2023-02-13T07:04:26.408Z,21.55
2023-02-13T07:06:32.989Z,22.50
2023-02-13T07:08:38.477Z,20.30
2023-02-13T07:10:44.465Z,20.25
2023-02-13T07:13:05.447Z,20.25
2023-02-13T07:15:11.764Z,21.98
2023-02-13T07:17:16.971Z,19.13
2023-02-13T07:21:26.583Z,18.50
2023-02-13T07:23:31.422Z,19.45
2023-02-13T07:25:37.605Z,19.25
2023-02-13T07:27:42.610Z,20.15
2023-02-13T07:29:50.219Z,19.48
2023-02-13T07:31:55.652Z,20.35
2023-02-13T07:34:00.598Z,22.33
2023-02-13T07:36:05.714Z,21.98
2023-02-13T07:40:18.112Z,18.73
2023-02-13T07:42:23.042Z,21.63
2023-02-13T07:44:27.901Z,19.20
2023-02-13T07:46:35.405Z,19.13
2023-02-13T07:48:40.325Z,18.98
2023-02-13T07:50:45.228Z,19.98
2023-02-13T07:52:56.408Z,19.85
2023-02-13T07:55:01.294Z,20.52
2023-02-13T07:57:07.444Z,20.30
2023-02-13T07:59:13.933Z,17.65
2023-02-13T08:01:20.447Z,18.75
2023-02-13T08:03:27.922Z,23.38
2023-02-13T08:05:35.097Z,22.58
2023-02-13T08:07:40.469Z,20.10
2023-02-13T08:12:05.057Z,19.50
2023-02-13T08:14:09.853Z,19.95
2023-02-13T08:16:15.118Z,22.65
2023-02-13T08:18:20.310Z,19.85
2023-02-13T08:20:27.882Z,19.15
2023-02-13T08:22:32.755Z,20.77
2023-02-13T08:24:37.629Z,20.95
2023-02-13T08:26:43.534Z,21.23
2023-02-13T08:28:48.413Z,20.80
2023-02-13T08:30:55.548Z,20.97
2023-02-13T08:33:00.468Z,19.45
2023-02-13T08:35:05.326Z,19.60
2023-02-13T08:37:12.785Z,22.15
2023-02-13T08:39:17.580Z,24.08
2023-02-13T08:41:23.242Z,25.70
2023-02-13T08:43:28.150Z,23.48
2023-02-13T08:45:33.456Z,23.08
2023-02-13T08:49:43.144Z,26.70
2023-02-13T08:51:48.032Z,26.15
2023-02-13T08:53:55.632Z,24.92
2023-02-13T08:56:01.171Z,22.73
2023-02-13T08:58:07.092Z,23.02
2023-02-13T09:00:13.259Z,24.42
2023-02-13T09:02:18.114Z,21.63
2023-02-13T09:04:23.354Z,21.83
2023-02-13T09:08:33.885Z,24.23
2023-02-13T09:12:55.551Z,22.33
2023-02-13T09:15:00.370Z,23.10
2023-02-13T09:17:05.207Z,20.92
2023-02-13T09:19:10.338Z,24.48
2023-02-13T09:21:16.161Z,23.83
2023-02-13T09:23:21.060Z,25.42
2023-02-13T09:25:26.310Z,25.17
2023-02-13T09:27:34.832Z,22.10
2023-02-13T09:29:39.753Z,21.60
2023-02-13T09:31:44.738Z,20.65
2023-02-13T09:33:51.215Z,23.67
2023-02-13T09:35:56.545Z,23.67
2023-02-13T09:38:03.860Z,23.67
2023-02-13T09:40:19.009Z,22.40
2023-02-13T09:42:27.001Z,25.10
2023-02-13T09:44:43.531Z,23.85
2023-02-13T09:46:49.069Z,23.05
2023-02-13T09:49:00.130Z,23.50
2023-02-13T09:51:05.061Z,23.20
2023-02-13T09:53:10.062Z,24.83
2023-02-13T09:55:19.994Z,24.77
2023-02-13T09:57:31.480Z,24.90
2023-02-13T09:59:48.617Z,24.75
2023-02-13T10:01:57.997Z,28.17
2023-02-13T10:04:25.855Z,23.02
2023-02-13T10:06:34.512Z,22.80
2023-02-13T10:09:02.279Z,22.35
2023-02-13T10:11:18.094Z,22.45
2023-02-13T10:13:35.352Z,25.23
2023-02-13T10:15:51.771Z,27.83
2023-02-13T10:18:02.127Z,25.98
2023-02-13T10:20:11.490Z,30.27
2023-02-13T10:22:19.845Z,26.60
2023-02-13T10:24:34.579Z,30.08
2023-02-13T10:26:46.580Z,29.65
2023-02-13T10:29:10.865Z,25.30
2023-02-13T10:31:22.447Z,23.85
2023-02-13T10:33:32.131Z,24.77
2023-02-13T10:35:37.861Z,23.13
2023-02-13T10:37:42.835Z,25.27
2023-02-13T10:39:49.633Z,26.40
2023-02-13T10:41:58.076Z,25.35
2023-02-13T10:44:18.993Z,25.92
2023-02-13T10:46:39.289Z,24.05
2023-02-13T10:49:07.261Z,26.17
2023-02-13T10:51:18.468Z,27.00
2023-02-13T10:53:35.173Z,26.40
2023-02-13T10:56:24.733Z,27.05
2023-02-13T10:58:41.795Z,26.40
2023-02-13T11:00:57.156Z,27.27
2023-02-13T11:03:04.970Z,25.38
2023-02-13T11:05:19.641Z,26.55
2023-02-13T11:07:27.963Z,25.23
2023-02-13T11:09:39.798Z,25.58
2023-02-13T11:11:46.273Z,27.52
2023-02-13T11:14:10.841Z,26.52
2023-02-13T11:16:15.910Z,24.95
2023-02-13T11:18:26.512Z,26.38
2023-02-13T11:20:40.041Z,22.48
2023-02-13T11:22:45.930Z,24.85
2023-02-13T11:24:56.448Z,24.00
2023-02-13T11:27:09.085Z,22.80
2023-02-13T11:29:21.424Z,24.52
2023-02-13T11:31:29.847Z,24.95
2023-02-13T11:33:37.357Z,23.30
2023-02-13T11:35:42.474Z,23.98
2023-02-13T11:39:56.839Z,21.27
2023-02-13T11:42:02.565Z,22.13
2023-02-13T11:44:08.301Z,21.67
2023-02-13T11:46:20.604Z,23.45
2023-02-13T11:48:25.777Z,22.05
2023-02-13T11:52:40.389Z,21.38
2023-02-13T11:54:47.249Z,21.58
2023-02-13T11:57:05.800Z,19.77
2023-02-13T11:59:16.761Z,20.92
2023-02-13T12:01:31.152Z,20.83
2023-02-13T12:03:36.278Z,20.05
2023-02-13T12:05:43.715Z,19.23
2023-02-13T12:07:49.780Z,19.77
2023-02-13T12:10:01.906Z,19.15
2023-02-13T12:12:08.661Z,19.38
2023-02-13T12:14:17.223Z,16.17
2023-02-13T12:16:34.140Z,18.38
2023-02-13T12:18:43.120Z,20.63
2023-02-13T12:20:59.963Z,19.50
2023-02-13T12:23:10.505Z,19.08
2023-02-13T12:25:30.504Z,19.95
2023-02-13T12:27:43.844Z,19.65
2023-02-13T12:30:09.389Z,19.08
2023-02-13T12:32:21.476Z,18.67
2023-02-13T12:34:51.658Z,17.20
2023-02-13T12:37:14.949Z,18.23
2023-02-13T12:39:28.813Z,17.45
2023-02-13T12:41:41.867Z,17.90
2023-02-13T12:44:08.703Z,16.60
2023-02-13T12:46:21.603Z,19.20
2023-02-13T12:48:37.389Z,16.45
2023-02-13T12:51:02.582Z,16.13
2023-02-13T12:53:20.937Z,17.08
2023-02-13T12:55:46.890Z,15.27
2023-02-13T12:58:05.540Z,14.73
2023-02-13T13:00:24.968Z,15.50
2023-02-13T13:02:50.550Z,13.95
2023-02-13T13:05:13.612Z,14.57
2023-02-13T13:07:45.585Z,11.80
2023-02-13T13:10:06.350Z,12.20
2023-02-13T13:12:21.378Z,14.00
2023-02-13T13:14:32.220Z,12.67
2023-02-13T13:16:48.486Z,13.55
2023-02-13T13:19:04.955Z,13.90
2023-02-13T13:21:23.331Z,13.43
2023-02-13T13:23:34.136Z,15.02
2023-02-13T13:25:50.242Z,14.38
2023-02-13T13:28:00.722Z,14.45
2023-02-13T13:30:08.947Z,12.93
2023-02-13T13:32:19.538Z,14.25
2023-02-13T13:34:27.643Z,12.75
2023-02-13T13:36:41.909Z,13.07
2023-02-13T13:38:56.920Z,12.00
2023-02-13T13:41:12.144Z,13.37
2023-02-13T13:43:30.190Z,13.70
2023-02-13T13:45:46.797Z,13.48
2023-02-13T13:48:09.997Z,12.98
2023-02-13T13:50:24.167Z,14.27
2023-02-13T13:52:31.121Z,12.43
2023-02-13T13:54:38.639Z,12.18
2023-02-13T13:57:22.285Z,13.15
2023-02-13T13:59:57.348Z,13.73
2023-02-13T14:02:32.288Z,14.02
2023-02-13T14:04:43.829Z,13.07
2023-02-13T14:07:27.008Z,13.20
2023-02-13T14:09:43.216Z,14.48
2023-02-13T14:11:48.552Z,13.30
2023-02-13T14:16:00.744Z,12.43
2023-02-13T14:18:11.465Z,13.73
2023-02-13T14:20:26.369Z,13.02
2023-02-13T14:22:39.529Z,12.43
2023-02-13T14:24:44.885Z,13.88
2023-02-13T14:29:35.947Z,13.35
2023-02-13T14:31:43.913Z,11.57
2023-02-13T14:33:49.622Z,13.48
2023-02-13T14:36:07.299Z,12.45
2023-02-13T14:38:26.900Z,12.70
2023-02-13T14:40:44.883Z,11.50
2023-02-13T14:42:54.046Z,12.13
2023-02-13T14:45:00.937Z,11.55
2023-02-13T14:47:09.312Z,11.95
2023-02-13T14:49:20.329Z,12.07
2023-02-13T14:51:33.337Z,12.55
2023-02-13T14:53:56.254Z,11.68
2023-02-13T14:56:05.882Z,13.52
2023-02-13T14:58:15.807Z,12.27
2023-02-13T15:00:27.967Z,10.98
2023-02-13T15:02:38.352Z,9.75
2023-02-13T15:04:46.440Z,10.57
2023-02-13T15:06:56.467Z,10.82
2023-02-13T15:09:05.019Z,11.40
2023-02-13T15:11:30.530Z,11.73
2023-02-13T15:13:37.514Z,10.60
2023-02-13T15:15:44.574Z,12.88
2023-02-13T15:17:49.889Z,12.13
2023-02-13T15:22:07.178Z,11.55
2023-02-13T15:24:17.346Z,11.73
2023-02-13T15:26:27.540Z,10.02
2023-02-13T15:28:33.101Z,9.80
2023-02-13T15:30:41.183Z,10.10
2023-02-13T15:32:46.137Z,7.80
2023-02-13T15:34:51.535Z,7.72
2023-02-13T15:36:57.064Z,7.68
2023-02-13T15:39:10.427Z,7.50
2023-02-13T15:41:21.736Z,7.43
2023-02-13T15:43:34.740Z,7.10
2023-02-13T15:45:39.593Z,7.18
2023-02-13T15:47:46.968Z,7.57
2023-02-13T15:49:52.751Z,7.47
2023-02-13T15:52:10.296Z,6.57
2023-02-13T15:54:30.994Z,6.72
2023-02-13T15:56:37.414Z,6.88
2023-02-13T15:58:42.379Z,7.47
2023-02-13T16:00:47.668Z,7.53
2023-02-13T16:02:55.439Z,7.22
2023-02-13T16:05:01.385Z,7.60
2023-02-13T16:07:06.225Z,7.53
2023-02-13T16:09:30.835Z,7.68
2023-02-13T16:11:40.274Z,7.57
2023-02-13T16:14:01.872Z,9.00
2023-02-13T16:16:12.576Z,10.52
2023-02-13T16:18:22.492Z,9.73
2023-02-13T16:20:29.867Z,8.88
2023-02-13T16:22:38.414Z,8.70
2023-02-13T16:24:50.930Z,8.50
2023-02-13T16:26:56.417Z,9.40
2023-02-13T16:29:01.459Z,9.23
2023-02-13T16:31:08.524Z,8.70
2023-02-13T16:33:30.671Z,8.82
2023-02-13T16:35:40.862Z,8.63
2023-02-13T16:37:55.484Z,8.80
2023-02-13T16:40:34.832Z,9.60
2023-02-13T16:42:39.788Z,9.38
2023-02-13T16:44:44.658Z,11.95
2023-02-13T16:46:55.318Z,14.27
2023-02-13T16:49:18.852Z,14.15
2023-02-13T16:51:28.585Z,13.45
2023-02-13T16:53:34.332Z,13.88
2023-02-13T16:55:41.912Z,12.77
2023-02-13T16:57:47.460Z,15.65
2023-02-13T17:00:04.432Z,14.45
2023-02-13T17:02:23.975Z,13.55
2023-02-13T17:04:30.406Z,13.70
2023-02-13T17:06:35.272Z,13.55
2023-02-13T17:08:40.125Z,16.98
2023-02-13T17:11:04.767Z,15.60
2023-02-13T17:13:17.871Z,17.23
2023-02-13T17:15:25.171Z,13.70
2023-02-13T17:17:32.121Z,15.00
2023-02-13T17:19:36.895Z,14.90
2023-02-13T17:21:42.716Z,14.27
2023-02-13T17:23:50.726Z,15.93
2023-02-13T17:26:00.359Z,19.65
2023-02-13T17:28:18.955Z,17.38
2023-02-13T17:30:30.981Z,15.82
2023-02-13T17:32:39.900Z,15.13
2023-02-13T17:34:49.282Z,13.40
2023-02-13T17:36:56.065Z,14.13
2023-02-13T17:39:00.974Z,13.35
2023-02-13T17:41:08.740Z,13.63
2023-02-13T17:43:18.170Z,11.50
2023-02-13T17:45:28.789Z,11.60
2023-02-13T17:47:33.653Z,13.73
2023-02-13T17:49:38.437Z,14.05
2023-02-13T17:51:46.019Z,14.35
2023-02-13T17:53:51.131Z,15.55
2023-02-13T17:55:57.095Z,19.02
2023-02-13T17:58:05.068Z,18.33
2023-02-13T18:00:11.667Z,20.45
2023-02-13T18:02:22.229Z,16.83
2023-02-13T18:04:27.653Z,13.02
2023-02-13T18:06:32.515Z,14.18
2023-02-13T18:08:37.338Z,12.27
2023-02-13T18:10:42.522Z,13.52
2023-02-13T18:12:48.592Z,12.77
2023-02-13T18:14:56.390Z,12.68
2023-02-13T18:17:01.280Z,12.38
2023-02-13T18:19:06.111Z,10.60
2023-02-13T18:21:12.680Z,11.35
2023-02-13T18:23:18.406Z,11.50
2023-02-13T18:25:24.293Z,10.95
2023-02-13T18:27:29.205Z,10.88
2023-02-13T18:29:36.335Z,12.05
2023-02-13T18:31:45.303Z,12.50
2023-02-13T18:33:50.428Z,13.05
2023-02-13T18:36:00.611Z,13.93
2023-02-13T18:38:07.812Z,14.80
2023-02-13T18:40:15.141Z,14.80
2023-02-13T18:42:19.978Z,14.90
2023-02-13T18:44:28.891Z,13.95
2023-02-13T18:46:34.068Z,14.13
2023-02-13T18:48:43.763Z,14.55
2023-02-13T18:50:48.664Z,15.05
2023-02-13T18:52:56.042Z,16.13
2023-02-13T18:55:03.577Z,17.02
2023-02-13T18:57:15.503Z,16.70
2023-02-13T18:59:23.700Z,18.10
2023-02-13T19:01:28.550Z,17.38
2023-02-13T19:03:33.448Z,20.50
2023-02-13T19:05:43.169Z,20.05
2023-02-13T19:07:48.042Z,25.95
2023-02-13T19:10:04.566Z,20.05
2023-02-13T19:12:11.623Z,22.80
2023-02-13T19:14:19.254Z,25.15
2023-02-13T19:16:28.531Z,23.08
2023-02-13T19:18:33.403Z,20.95
2023-02-13T19:20:41.416Z,21.98
2023-02-13T19:22:46.302Z,20.95
2023-02-13T19:24:51.242Z,20.13
2023-02-13T19:26:56.328Z,21.70
2023-02-13T19:29:04.081Z,21.33
2023-02-13T19:31:13.840Z,20.35
2023-02-13T19:33:21.099Z,22.02
2023-02-13T19:35:26.810Z,20.33
2023-02-13T19:37:43.702Z,20.95
2023-02-13T19:39:56.150Z,20.20
2023-02-13T19:42:01.058Z,21.63
2023-02-13T19:44:06.116Z,21.80
2023-02-13T19:46:14.205Z,21.67
2023-02-13T19:48:20.339Z,23.27
2023-02-13T19:50:25.248Z,24.77
2023-02-13T19:52:32.789Z,22.33
2023-02-13T19:54:40.620Z,24.27
2023-02-13T19:56:45.509Z,24.10
2023-02-13T19:58:50.405Z,24.52
2023-02-13T20:00:55.396Z,23.63
2023-02-13T20:03:03.980Z,24.98
2023-02-13T20:05:09.726Z,25.15
2023-02-13T20:07:14.665Z,26.10
2023-02-13T20:09:19.753Z,26.00
2023-02-13T20:11:27.113Z,28.38
2023-02-13T20:13:32.154Z,27.83
2023-02-13T20:15:36.952Z,26.95
2023-02-13T20:17:41.819Z,26.55
2023-02-13T20:19:47.723Z,28.27
2023-02-13T20:21:55.230Z,31.25
2023-02-13T20:24:00.111Z,26.33
2023-02-13T20:26:09.089Z,27.92
2023-02-13T20:28:16.535Z,26.85
2023-02-13T20:30:22.550Z,26.63
2023-02-13T20:34:44.152Z,25.98
2023-02-13T20:36:57.404Z,26.33
2023-02-13T20:39:05.479Z,27.98
2023-02-13T20:41:11.579Z,27.58
2023-02-13T20:43:23.476Z,27.65
2023-02-13T20:45:28.415Z,27.50
2023-02-13T20:47:34.726Z,25.65
2023-02-13T20:49:41.171Z,25.25
2023-02-13T20:51:47.686Z,26.98
2023-02-13T20:53:52.636Z,26.58
2023-02-13T20:56:05.718Z,26.42
2023-02-13T20:58:12.796Z,28.50
2023-02-13T21:00:20.606Z,26.75
2023-02-13T21:02:28.158Z,26.55
2023-02-13T21:04:34.333Z,26.25
2023-02-13T21:06:57.938Z,25.73
2023-02-13T21:09:03.895Z,26.52
2023-02-13T21:11:10.713Z,26.13
2023-02-13T21:13:15.578Z,29.17
2023-02-13T21:15:23.058Z,26.83
2023-02-13T21:17:27.921Z,27.17
2023-02-13T21:19:33.590Z,28.52
2023-02-13T21:21:44.093Z,29.13
2023-02-13T21:23:49.270Z,29.13
2023-02-13T21:25:54.385Z,29.85
2023-02-13T21:27:59.965Z,30.15
2023-02-13T21:30:05.007Z,30.25
2023-02-13T21:32:12.657Z,28.45
2023-02-13T21:34:19.247Z,27.50
2023-02-13T21:36:24.096Z,28.35
2023-02-13T21:38:28.914Z,30.00
2023-02-13T21:40:33.800Z,27.30
2023-02-13T21:42:38.733Z,28.38
2023-02-13T21:44:43.576Z,26.23
2023-02-13T21:46:50.037Z,28.65
2023-02-13T21:49:02.509Z,29.40
2023-02-13T21:51:10.981Z,32.25
2023-02-13T21:53:15.834Z,28.48
2023-02-13T21:55:20.865Z,28.58
2023-02-13T21:59:30.540Z,29.45
2023-02-13T22:01:37.576Z,29.30
2023-02-13T22:03:42.625Z,28.77
2023-02-13T22:05:51.511Z,29.35
2023-02-13T22:08:08.808Z,29.38
2023-02-13T22:10:13.953Z,31.38
2023-02-13T22:12:18.722Z,30.33
2023-02-13T22:14:24.405Z,31.33
2023-02-13T22:16:30.534Z,32.05
2023-02-13T22:18:36.674Z,30.40
2023-02-13T22:20:41.642Z,30.80
2023-02-13T22:22:48.994Z,30.63
2023-02-13T22:24:53.740Z,34.45
2023-02-13T22:26:58.580Z,32.47
2023-02-13T22:29:05.656Z,30.73
2023-02-13T22:31:11.719Z,31.58
2023-02-13T22:33:16.607Z,28.98
2023-02-13T22:35:21.390Z,29.27
2023-02-13T22:37:26.378Z,30.45
2023-02-13T22:39:33.911Z,29.67
2023-02-13T22:41:38.845Z,30.20
2023-02-13T22:43:45.449Z,30.75
2023-02-13T22:45:50.358Z,28.08
2023-02-13T22:47:55.259Z,29.35
2023-02-13T22:50:00.029Z,29.67
2023-02-13T22:52:04.966Z,30.42
2023-02-13T22:54:12.662Z,29.65
2023-02-13T22:56:20.017Z,32.35
2023-02-13T22:58:24.851Z,29.17
2023-02-13T23:00:29.614Z,31.55
2023-02-13T23:02:34.450Z,29.25
2023-02-13T23:04:39.505Z,29.58
2023-02-13T23:06:44.279Z,31.00
2023-02-13T23:08:52.463Z,32.20
2023-02-13T23:11:10.393Z,31.45
2023-02-13T23:13:18.392Z,31.92
2023-02-13T23:15:23.364Z,33.08
2023-02-13T23:17:41.048Z,30.38
2023-02-13T23:19:46.207Z,29.20
2023-02-13T23:21:51.124Z,29.48
2023-02-13T23:23:56.413Z,30.85
2023-02-13T23:26:05.642Z,31.20
2023-02-13T23:28:10.610Z,30.27
2023-02-13T23:30:20.766Z,31.48
2023-02-13T23:32:25.652Z,28.92
2023-02-13T23:34:30.424Z,28.67
2023-02-13T23:36:35.329Z,32.95
2023-02-13T23:38:40.131Z,31.30
2023-02-13T23:40:45.994Z,28.10
2023-02-13T23:42:50.828Z,29.65
2023-02-13T23:44:55.658Z,28.58
2023-02-13T23:47:03.059Z,28.10
2023-02-13T23:49:07.867Z,30.27
2023-02-13T23:51:12.660Z,30.40
2023-02-13T23:53:17.428Z,29.88
2023-02-13T23:55:22.391Z,28.95
2023-02-13T23:57:27.241Z,29.00
2023-02-13T23:59:32.070Z,29.95
